Wilder, Idaho
Current Conditions -  °F | °C
As of 7:15 AM on Sunday 21 Dec 2014 (Local Time) from KEUL Reporting Station
Overcast Overcast  
Wind Chill: 40°   Ceiling: 12000
Heat Index: 43°   Visibility: 10mi
Dew Point: 36°   Wind: 5mph
Humidity: 76%   Direction: 30°NNE
Pressure: 29.84"   Gusts: NA
Location:  43.68°N, 116.91°W
Report Text: KEUL 211415Z AUTO 03004KT 10SM FEW045 OVC120 06/02 A2984 RMK AO1
Loading
Personal Weather Stations






























Interactive Weather Map New forecast layout! Learn more

10-Day Weather Forecast

Advertisements
Track Severe Weather on mobile